createdAt,value
2018-04-24T00:01:21.617Z,7.55
2018-04-24T00:03:49.277Z,8.75
2018-04-24T00:06:17.030Z,7.55
2018-04-24T00:08:44.738Z,7.03
2018-04-24T00:11:12.522Z,7.82
2018-04-24T00:13:40.188Z,7.45
2018-04-24T00:16:07.920Z,8.23
2018-04-24T00:18:35.629Z,7.55
2018-04-24T00:21:03.330Z,7.05
2018-04-24T00:23:31.024Z,7.00
2018-04-24T00:25:58.792Z,7.50
2018-04-24T00:28:26.476Z,7.95
2018-04-24T00:30:54.988Z,7.62
2018-04-24T00:33:22.698Z,7.43
2018-04-24T00:35:50.432Z,7.90
2018-04-24T00:38:18.081Z,6.68
2018-04-24T00:40:46.527Z,7.10
2018-04-24T00:43:14.218Z,8.15
2018-04-24T00:45:41.924Z,7.43
2018-04-24T00:48:09.630Z,7.30
2018-04-24T00:50:38.071Z,7.40
2018-04-24T00:53:17.487Z,7.25
2018-04-24T00:55:45.173Z,6.82
2018-04-24T00:58:12.850Z,8.75
2018-04-24T01:00:40.504Z,8.50
2018-04-24T01:03:09.019Z,6.80
2018-04-24T01:05:36.712Z,7.57
2018-04-24T01:08:04.422Z,7.37
2018-04-24T01:10:32.045Z,7.32
2018-04-24T01:12:59.860Z,6.43
2018-04-24T01:15:27.538Z,7.53
2018-04-24T01:17:55.255Z,7.03
2018-04-24T01:20:22.916Z,7.27
2018-04-24T01:22:51.380Z,7.90
2018-04-24T01:25:19.065Z,8.07
2018-04-24T01:27:47.497Z,7.90
2018-04-24T01:30:15.166Z,8.32
2018-04-24T01:32:42.866Z,9.00
2018-04-24T01:35:10.579Z,7.28
2018-04-24T01:37:39.018Z,7.90
2018-04-24T01:40:06.750Z,8.45
2018-04-24T01:42:34.409Z,8.98
2018-04-24T01:45:02.093Z,7.53
2018-04-24T01:47:29.735Z,7.65
2018-04-24T01:49:57.431Z,8.23
2018-04-24T01:52:25.055Z,8.43
2018-04-24T01:54:53.482Z,7.62
2018-04-24T01:57:21.137Z,8.70
2018-04-24T01:59:48.825Z,8.73
2018-04-24T02:02:16.502Z,8.50
2018-04-24T02:04:44.177Z,8.23
2018-04-24T02:07:11.842Z,8.60
2018-04-24T02:09:39.523Z,8.30
2018-04-24T02:12:07.177Z,9.55
2018-04-24T02:14:34.846Z,8.23
2018-04-24T02:17:03.363Z,8.37
2018-04-24T02:19:31.108Z,8.63
2018-04-24T02:21:59.529Z,8.07
2018-04-24T02:24:27.230Z,9.13
2018-04-24T02:26:54.898Z,7.47
2018-04-24T02:29:22.603Z,8.65
2018-04-24T02:31:51.061Z,8.10
2018-04-24T02:34:18.760Z,9.02
2018-04-24T02:36:46.453Z,8.50
2018-04-24T02:39:14.177Z,6.77
2018-04-24T02:41:41.846Z,9.67
2018-04-24T02:44:09.636Z,9.02
2018-04-24T02:46:37.399Z,7.43
2018-04-24T02:49:05.141Z,9.32
2018-04-24T02:51:32.848Z,8.93
2018-04-24T02:54:00.564Z,8.48
2018-04-24T02:56:28.315Z,7.85
2018-04-24T02:58:55.955Z,8.82
2018-04-24T03:01:24.436Z,7.60
2018-04-24T03:03:52.098Z,9.02
2018-04-24T03:06:20.094Z,8.25
2018-04-24T03:08:48.489Z,9.45
2018-04-24T03:11:17.071Z,8.67
2018-04-24T03:13:44.810Z,9.37
2018-04-24T03:16:12.651Z,8.85
2018-04-24T03:18:41.106Z,8.90
2018-04-24T03:21:08.828Z,8.88
2018-04-24T03:23:36.513Z,9.40
2018-04-24T03:26:04.254Z,8.73
2018-04-24T03:28:31.887Z,6.95
2018-04-24T03:30:59.572Z,8.40
2018-04-24T03:33:27.225Z,8.80
2018-04-24T03:35:54.935Z,8.85
2018-04-24T03:38:22.601Z,10.30
2018-04-24T03:40:50.305Z,8.70
2018-04-24T03:43:18.009Z,9.03
2018-04-24T03:45:45.741Z,9.48
2018-04-24T03:48:13.404Z,9.20
2018-04-24T03:50:41.114Z,8.23
2018-04-24T03:53:10.647Z,10.05
2018-04-24T03:55:38.326Z,10.05
2018-04-24T03:58:17.882Z,9.40
2018-04-24T04:00:46.882Z,9.02
2018-04-24T04:03:14.602Z,9.85
2018-04-24T04:05:42.271Z,10.60
2018-04-24T04:08:09.966Z,10.60
2018-04-24T04:10:37.671Z,10.48
2018-04-24T04:13:14.173Z,9.60
2018-04-24T04:15:44.674Z,10.05
2018-04-24T04:18:24.422Z,10.30
2018-04-24T04:21:09.592Z,9.85
2018-04-24T04:23:48.897Z,9.80
2018-04-24T04:26:17.435Z,9.82
2018-04-24T04:28:45.120Z,11.38
2018-04-24T04:31:12.779Z,9.52
2018-04-24T04:33:40.677Z,9.15
2018-04-24T04:36:08.315Z,9.90
2018-04-24T04:38:51.321Z,9.82
2018-04-24T04:41:19.123Z,10.13
2018-04-24T04:44:00.033Z,10.73
2018-04-24T04:46:27.772Z,10.15
2018-04-24T04:48:56.235Z,10.63
2018-04-24T04:51:23.934Z,9.98
2018-04-24T04:53:52.505Z,9.23
2018-04-24T04:56:20.181Z,9.87
2018-04-24T04:58:47.915Z,11.00
2018-04-24T05:01:15.574Z,8.77
2018-04-24T05:03:43.268Z,9.85
2018-04-24T05:06:11.316Z,9.80
2018-04-24T05:08:39.002Z,10.07
2018-04-24T05:11:07.435Z,10.63
2018-04-24T05:13:35.088Z,10.98
2018-04-24T05:16:02.781Z,8.83
2018-04-24T05:18:30.499Z,10.75
2018-04-24T05:20:58.171Z,10.10
2018-04-24T05:23:26.642Z,9.10
2018-04-24T05:25:54.300Z,9.70
2018-04-24T05:28:21.998Z,11.12
2018-04-24T05:30:49.663Z,11.30
2018-04-24T05:33:17.336Z,8.90
2018-04-24T05:35:44.981Z,8.70
2018-04-24T05:38:12.709Z,10.30
2018-04-24T05:40:40.372Z,8.60
2018-04-24T05:43:08.031Z,10.27
2018-04-24T05:45:35.689Z,9.73
2018-04-24T05:48:03.443Z,10.00
2018-04-24T05:50:31.080Z,9.57
2018-04-24T05:52:58.832Z,9.27
2018-04-24T05:55:26.449Z,9.52
2018-04-24T05:57:55.013Z,8.95
2018-04-24T06:00:22.686Z,8.90
2018-04-24T06:02:50.330Z,9.32
2018-04-24T06:05:19.028Z,9.65
2018-04-24T06:07:46.759Z,10.35
2018-04-24T06:10:14.468Z,9.43
2018-04-24T06:12:42.115Z,10.02
2018-04-24T06:15:09.857Z,8.93
2018-04-24T06:17:37.739Z,9.68
2018-04-24T06:20:05.511Z,10.30
2018-04-24T06:22:33.177Z,10.68
2018-04-24T06:25:00.859Z,8.95
2018-04-24T06:27:28.579Z,10.37
2018-04-24T06:29:57.052Z,10.10
2018-04-24T06:32:24.745Z,10.27
2018-04-24T06:34:52.515Z,11.03
2018-04-24T06:37:20.939Z,10.40
2018-04-24T06:39:48.630Z,9.13
2018-04-24T06:42:16.341Z,9.50
2018-04-24T06:44:44.016Z,7.85
2018-04-24T06:47:12.009Z,9.25
2018-04-24T06:49:39.738Z,9.88
2018-04-24T06:52:07.503Z,9.30
2018-04-24T06:54:35.202Z,9.85
2018-04-24T06:57:02.950Z,8.25
2018-04-24T06:59:30.655Z,9.50
2018-04-24T07:01:58.330Z,8.90
2018-04-24T07:04:26.073Z,9.65
2018-04-24T07:06:53.741Z,8.55
2018-04-24T07:09:21.426Z,9.32
2018-04-24T07:11:49.312Z,10.05
2018-04-24T07:16:49.205Z,8.18
2018-04-24T07:19:17.823Z,10.13
2018-04-24T07:21:45.505Z,8.73
2018-04-24T07:24:14.313Z,9.35
2018-04-24T07:26:42.789Z,9.53
2018-04-24T07:29:10.794Z,9.77
2018-04-24T07:31:38.514Z,8.68
2018-04-24T07:34:06.288Z,8.68
2018-04-24T07:36:34.066Z,8.02
2018-04-24T07:39:03.133Z,8.15
2018-04-24T07:41:33.758Z,8.77
2018-04-24T07:44:01.514Z,9.25
2018-04-24T07:46:29.242Z,10.13
2018-04-24T07:48:57.838Z,9.60
2018-04-24T07:51:26.924Z,8.90
2018-04-24T07:53:55.610Z,8.17
2018-04-24T07:56:24.121Z,9.68
2018-04-24T07:58:53.047Z,9.85
2018-04-24T08:01:21.273Z,10.00
2018-04-24T08:03:49.623Z,8.93
2018-04-24T08:06:17.672Z,9.93
2018-04-24T08:08:46.188Z,9.75
2018-04-24T08:11:13.934Z,9.73
2018-04-24T08:13:41.642Z,9.93
2018-04-24T08:16:09.381Z,9.40
2018-04-24T08:18:37.063Z,8.15
2018-04-24T08:21:04.771Z,10.27
2018-04-24T08:23:32.448Z,9.00
2018-04-24T08:26:00.185Z,9.38
2018-04-24T08:28:27.854Z,9.27
2018-04-24T08:30:55.969Z,10.00
2018-04-24T08:33:23.715Z,8.02
2018-04-24T08:35:52.569Z,8.40
2018-04-24T08:38:20.918Z,9.68
2018-04-24T08:40:48.672Z,9.73
2018-04-24T08:43:16.440Z,8.95
2018-04-24T08:45:44.120Z,8.45
2018-04-24T08:48:11.827Z,10.27
2018-04-24T08:50:39.493Z,9.20
2018-04-24T08:53:07.226Z,11.27
2018-04-24T08:55:34.988Z,7.90
2018-04-24T08:58:04.567Z,10.27
2018-04-24T09:00:32.424Z,9.05
2018-04-24T09:03:00.112Z,8.63
2018-04-24T09:05:27.840Z,8.55
2018-04-24T09:07:55.592Z,7.60
2018-04-24T09:10:23.277Z,9.15
2018-04-24T09:12:51.019Z,9.77
2018-04-24T09:15:18.686Z,9.25
2018-04-24T09:17:46.366Z,9.30
2018-04-24T09:20:14.055Z,8.65
2018-04-24T09:22:41.760Z,10.13
2018-04-24T09:25:09.444Z,8.67
2018-04-24T09:27:37.136Z,10.07
2018-04-24T09:30:04.885Z,9.97
2018-04-24T09:32:32.585Z,9.27
2018-04-24T09:35:00.432Z,9.30
2018-04-24T09:37:28.100Z,9.55
2018-04-24T09:39:57.146Z,9.73
2018-04-24T09:42:24.856Z,8.30
2018-04-24T09:44:52.561Z,9.50
2018-04-24T09:47:20.204Z,9.13
2018-04-24T09:49:47.946Z,8.10
2018-04-24T09:52:15.633Z,8.80
2018-04-24T09:54:43.335Z,8.57
2018-04-24T09:57:11.022Z,8.73
2018-04-24T09:59:38.736Z,8.05
2018-04-24T10:02:06.628Z,9.30
2018-04-24T10:04:34.386Z,8.57
2018-04-24T10:07:02.086Z,8.70
2018-04-24T10:09:29.875Z,9.50
2018-04-24T10:11:57.555Z,10.30
2018-04-24T10:14:25.226Z,9.30
2018-04-24T10:16:52.868Z,9.30
2018-04-24T10:19:20.595Z,10.20
2018-04-24T10:21:49.046Z,8.75
2018-04-24T10:24:16.833Z,9.50
2018-04-24T10:26:44.840Z,8.63
2018-04-24T10:29:12.581Z,8.82
2018-04-24T10:31:40.271Z,8.63
2018-04-24T10:34:07.942Z,9.30
2018-04-24T10:36:35.588Z,9.85
2018-04-24T10:39:03.874Z,8.68
2018-04-24T10:41:31.530Z,9.02
2018-04-24T10:43:59.345Z,10.75
2018-04-24T10:46:27.038Z,8.13
2018-04-24T10:51:26.915Z,8.45
2018-04-24T10:53:54.706Z,8.68
2018-04-24T10:56:22.568Z,11.12
2018-04-24T10:58:50.285Z,8.85
2018-04-24T11:01:17.983Z,7.90
2018-04-24T11:03:45.707Z,7.95
2018-04-24T11:06:13.579Z,8.23
2018-04-24T11:08:41.374Z,7.87
2018-04-24T11:11:09.483Z,8.68
2018-04-24T11:13:37.223Z,8.55
2018-04-24T11:16:05.000Z,7.18
2018-04-24T11:18:32.646Z,9.20
2018-04-24T11:21:00.800Z,8.73
2018-04-24T11:23:29.311Z,7.93
2018-04-24T11:25:57.016Z,10.15
2018-04-24T11:28:24.710Z,7.78
2018-04-24T11:30:52.465Z,9.45
2018-04-24T11:33:20.302Z,8.52
2018-04-24T11:35:47.978Z,8.80
2018-04-24T11:38:15.726Z,10.35
2018-04-24T11:40:43.446Z,7.93
2018-04-24T11:43:11.165Z,7.93
2018-04-24T11:45:38.946Z,8.50
2018-04-24T11:48:06.643Z,8.17
2018-04-24T11:50:34.385Z,9.80
2018-04-24T11:53:02.059Z,8.55
2018-04-24T11:55:29.832Z,8.63
2018-04-24T11:57:57.576Z,8.80
2018-04-24T12:00:25.595Z,8.30
2018-04-24T12:02:53.392Z,8.55
2018-04-24T12:05:21.126Z,8.48
2018-04-24T12:07:49.223Z,9.13
2018-04-24T12:10:17.027Z,8.88
2018-04-24T12:12:45.483Z,8.57
2018-04-24T12:15:13.236Z,7.93
2018-04-24T12:17:40.949Z,8.25
2018-04-24T12:20:08.677Z,8.98
2018-04-24T12:22:36.426Z,7.65
2018-04-24T12:25:05.085Z,9.02
2018-04-24T12:27:32.791Z,9.32
2018-04-24T12:30:00.479Z,8.57
2018-04-24T12:32:28.968Z,7.70
2018-04-24T12:34:56.686Z,8.52
2018-04-24T12:37:24.493Z,8.88
2018-04-24T12:39:52.207Z,8.75
2018-04-24T12:42:20.694Z,8.73
2018-04-24T12:44:48.382Z,7.68
2018-04-24T12:47:16.859Z,8.05
2018-04-24T12:49:44.520Z,9.52
2018-04-24T12:52:13.341Z,8.80
2018-04-24T12:54:41.121Z,8.95
2018-04-24T12:57:09.879Z,9.07
2018-04-24T12:59:37.771Z,8.20
2018-04-24T13:02:05.775Z,8.68
2018-04-24T13:04:33.587Z,8.60
2018-04-24T13:07:01.351Z,8.27
2018-04-24T13:09:29.064Z,7.80
2018-04-24T13:11:56.762Z,7.43
2018-04-24T13:14:24.470Z,8.10
2018-04-24T13:16:52.963Z,8.85
2018-04-24T13:19:20.659Z,8.03
2018-04-24T13:21:48.347Z,8.47
2018-04-24T13:24:16.851Z,8.17
2018-04-24T13:26:44.580Z,8.23
2018-04-24T13:29:12.352Z,8.40
2018-04-24T13:31:40.040Z,8.53
2018-04-24T13:34:07.757Z,8.00
2018-04-24T13:36:35.493Z,8.17
2018-04-24T13:39:04.058Z,7.23
2018-04-24T13:41:31.735Z,8.88
2018-04-24T13:43:59.409Z,8.35
2018-04-24T13:46:27.100Z,7.37
2018-04-24T13:48:54.877Z,7.87
2018-04-24T13:51:22.580Z,8.77
2018-04-24T13:53:51.143Z,7.90
2018-04-24T13:56:18.821Z,9.00
2018-04-24T13:58:46.520Z,6.72
2018-04-24T14:01:14.237Z,8.43
2018-04-24T14:03:41.995Z,7.78
2018-04-24T14:06:09.730Z,7.87
2018-04-24T14:08:37.491Z,6.53
2018-04-24T14:11:05.188Z,6.47
2018-04-24T14:13:33.005Z,5.80
2018-04-24T14:16:00.734Z,8.02
2018-04-24T14:18:28.429Z,6.97
2018-04-24T14:20:56.138Z,6.35
2018-04-24T14:23:23.910Z,6.62
2018-04-24T14:25:52.311Z,8.18
2018-04-24T14:28:20.091Z,6.80
2018-04-24T14:30:47.759Z,6.03
2018-04-24T14:33:15.537Z,7.30
2018-04-24T14:35:43.305Z,6.78
2018-04-24T14:38:10.999Z,5.72
2018-04-24T14:40:38.713Z,7.70
2018-04-24T14:43:06.461Z,7.10
2018-04-24T14:45:34.248Z,6.53
2018-04-24T14:55:37.548Z,6.78
2018-04-24T14:58:05.305Z,7.05
2018-04-24T15:00:33.061Z,6.75
2018-04-24T15:03:00.875Z,7.00
2018-04-24T15:05:28.660Z,7.07
2018-04-24T15:07:56.378Z,6.03
2018-04-24T15:10:24.147Z,6.40
2018-04-24T15:12:51.829Z,6.28
2018-04-24T15:15:19.593Z,5.95
2018-04-24T15:17:48.150Z,7.70
2018-04-24T15:20:15.866Z,5.60
2018-04-24T15:22:44.373Z,4.82
2018-04-24T15:25:12.078Z,7.00
2018-04-24T15:27:39.820Z,6.90
2018-04-24T15:30:07.536Z,6.47
2018-04-24T15:32:35.306Z,5.90
2018-04-24T15:35:03.101Z,6.03
2018-04-24T15:37:30.846Z,6.00
2018-04-24T15:39:58.556Z,6.50
2018-04-24T15:42:26.283Z,5.27
2018-04-24T15:44:54.063Z,5.17
2018-04-24T15:47:21.788Z,5.50
2018-04-24T15:49:49.480Z,4.93
2018-04-24T15:52:17.178Z,5.60
2018-04-24T15:54:45.629Z,4.82
2018-04-24T15:57:13.407Z,5.78
2018-04-24T15:59:41.071Z,5.18
2018-04-24T16:02:08.810Z,7.70
2018-04-24T16:04:36.497Z,5.50
2018-04-24T16:07:04.324Z,4.85
2018-04-24T16:09:32.000Z,6.82
2018-04-24T16:11:59.693Z,7.68
2018-04-24T16:14:27.381Z,5.50
2018-04-24T16:16:55.158Z,5.65
2018-04-24T16:19:23.020Z,4.87
2018-04-24T16:21:50.756Z,5.13
2018-04-24T16:26:50.348Z,4.93
2018-04-24T16:29:18.059Z,5.62
2018-04-24T16:31:45.767Z,4.32
2018-04-24T16:34:13.484Z,5.45
2018-04-24T16:36:41.927Z,5.22
2018-04-24T16:39:09.664Z,5.18
2018-04-24T16:41:37.328Z,6.00
2018-04-24T16:44:05.041Z,5.33
2018-04-24T16:46:32.814Z,5.03
2018-04-24T16:49:00.867Z,4.25
2018-04-24T16:51:28.684Z,4.87
2018-04-24T16:53:56.566Z,3.87
2018-04-24T16:56:24.440Z,6.60
2018-04-24T16:58:52.177Z,4.07
2018-04-24T17:01:19.838Z,4.90
2018-04-24T17:03:47.527Z,5.23
2018-04-24T17:06:15.284Z,4.43
2018-04-24T17:08:42.969Z,3.70
2018-04-24T17:11:11.410Z,4.65
2018-04-24T17:13:39.199Z,5.28
2018-04-24T17:16:06.883Z,5.62
2018-04-24T17:18:34.600Z,4.95
2018-04-24T17:21:02.244Z,5.65
2018-04-24T17:23:30.104Z,4.10
2018-04-24T17:25:57.776Z,5.13
2018-04-24T17:28:25.511Z,3.72
2018-04-24T17:30:53.241Z,3.60
2018-04-24T17:33:23.375Z,4.68
2018-04-24T17:35:51.444Z,4.87
2018-04-24T17:38:19.154Z,4.20
2018-04-24T17:40:47.112Z,4.28
2018-04-24T17:43:14.819Z,4.82
2018-04-24T17:45:43.296Z,5.12
2018-04-24T17:48:11.017Z,4.80
2018-04-24T17:50:38.771Z,4.30
2018-04-24T17:53:06.501Z,4.12
2018-04-24T17:55:34.242Z,4.97
2018-04-24T17:58:05.925Z,4.87
2018-04-24T18:00:35.937Z,4.32
2018-04-24T18:03:05.326Z,4.28
2018-04-24T18:05:33.481Z,6.35
2018-04-24T18:08:01.355Z,4.70
2018-04-24T18:10:29.146Z,5.53
2018-04-24T18:12:56.888Z,4.53
2018-04-24T18:15:24.634Z,4.18
2018-04-24T18:17:52.401Z,4.55
2018-04-24T18:20:27.994Z,4.47
2018-04-24T18:22:56.520Z,4.13
2018-04-24T18:25:25.745Z,5.25
2018-04-24T18:30:58.776Z,4.55
2018-04-24T18:33:26.775Z,4.65
2018-04-24T18:35:55.027Z,4.85
2018-04-24T18:38:22.864Z,4.05
2018-04-24T18:40:51.198Z,3.72
2018-04-24T18:43:20.000Z,4.57
2018-04-24T18:45:47.794Z,5.65
2018-04-24T18:48:15.703Z,5.12
2018-04-24T18:50:44.438Z,4.85
2018-04-24T18:53:12.156Z,5.62
2018-04-24T18:55:39.975Z,4.43
2018-04-24T18:58:08.531Z,4.60
2018-04-24T19:00:36.308Z,4.68
2018-04-24T19:03:04.072Z,5.50
2018-04-24T19:05:31.893Z,5.47
2018-04-24T19:08:00.406Z,5.32
2018-04-24T19:10:28.155Z,4.87
2018-04-24T19:12:55.899Z,6.22
2018-04-24T19:15:23.665Z,5.18
2018-04-24T19:17:51.383Z,5.53
2018-04-24T19:20:19.206Z,5.30
2018-04-24T19:22:46.937Z,5.50
2018-04-24T19:25:20.203Z,5.87
2018-04-24T19:27:47.925Z,6.15
2018-04-24T19:30:15.825Z,6.15
2018-04-24T19:32:43.657Z,5.85
2018-04-24T19:35:11.423Z,6.15
2018-04-24T19:37:39.097Z,6.30
2018-04-24T19:40:12.396Z,4.72
2018-04-24T19:42:40.276Z,5.50
2018-04-24T19:45:07.961Z,6.22
2018-04-24T19:47:35.815Z,6.20
2018-04-24T19:50:09.201Z,6.70
2018-04-24T19:52:36.969Z,6.07
2018-04-24T19:55:10.766Z,6.20
2018-04-24T19:57:39.272Z,5.35
2018-04-24T20:00:07.016Z,6.43
2018-04-24T20:02:34.811Z,6.93
2018-04-24T20:05:02.594Z,5.78
2018-04-24T20:07:30.575Z,6.43
2018-04-24T20:09:58.291Z,6.18
2018-04-24T20:12:26.192Z,5.68
2018-04-24T20:14:54.474Z,7.07
2018-04-24T20:17:22.427Z,6.72
2018-04-24T20:19:50.230Z,6.53
2018-04-24T20:22:18.041Z,6.10
2018-04-24T20:24:45.803Z,6.20
2018-04-24T20:27:13.540Z,5.60
2018-04-24T20:29:42.010Z,7.10
2018-04-24T20:32:09.664Z,7.60
2018-04-24T20:34:37.511Z,6.12
2018-04-24T20:37:05.229Z,5.68
2018-04-24T20:39:32.890Z,6.25
2018-04-24T20:42:00.640Z,7.20
2018-04-24T20:44:28.622Z,6.65
2018-04-24T20:46:56.334Z,6.55
2018-04-24T20:49:24.318Z,6.87
2018-04-24T20:51:52.023Z,6.43
2018-04-24T20:54:20.504Z,6.20
2018-04-24T20:56:48.170Z,5.30
2018-04-24T20:59:15.910Z,6.78
2018-04-24T21:01:43.630Z,6.93
2018-04-24T21:04:11.340Z,7.47
2018-04-24T21:06:38.995Z,7.65
2018-04-24T21:09:07.511Z,6.55
2018-04-24T21:11:35.181Z,6.30
2018-04-24T21:14:02.934Z,6.57
2018-04-24T21:16:31.517Z,7.97
2018-04-24T21:18:59.211Z,7.20
2018-04-24T21:21:27.671Z,8.05
2018-04-24T21:23:55.368Z,7.93
2018-04-24T21:26:23.131Z,6.87
2018-04-24T21:28:50.791Z,7.05
2018-04-24T21:31:18.493Z,8.70
2018-04-24T21:33:46.210Z,7.03
2018-04-24T21:36:15.448Z,6.47
2018-04-24T21:38:43.126Z,7.70
2018-04-24T21:41:10.811Z,7.12
2018-04-24T21:43:38.444Z,7.72
2018-04-24T21:46:06.141Z,6.10
2018-04-24T21:48:33.913Z,6.10
2018-04-24T21:51:01.577Z,7.10
2018-04-24T21:53:29.257Z,7.53
2018-04-24T21:55:56.960Z,7.93
2018-04-24T21:58:24.629Z,7.15
2018-04-24T22:00:52.561Z,6.72
2018-04-24T22:03:20.202Z,6.87
2018-04-24T22:05:48.683Z,6.53
2018-04-24T22:08:16.447Z,7.80
2018-04-24T22:10:44.132Z,7.13
2018-04-24T22:13:11.831Z,7.20
2018-04-24T22:15:39.569Z,8.10
2018-04-24T22:18:07.218Z,7.47
2018-04-24T22:20:34.943Z,7.30
2018-04-24T22:23:02.850Z,6.68
2018-04-24T22:25:30.710Z,7.85
2018-04-24T22:27:58.403Z,6.53
2018-04-24T22:30:26.078Z,7.55
2018-04-24T22:32:53.800Z,6.30
2018-04-24T22:35:21.537Z,7.28
2018-04-24T22:37:49.418Z,8.10
2018-04-24T22:40:18.294Z,7.72
2018-04-24T22:42:46.076Z,7.67
2018-04-24T22:45:13.749Z,7.87
2018-04-24T22:47:41.452Z,7.37
2018-04-24T22:50:09.946Z,9.20
2018-04-24T22:52:37.676Z,7.37
2018-04-24T22:55:05.331Z,8.30
2018-04-24T22:57:33.064Z,8.20
2018-04-24T23:00:00.738Z,9.45
2018-04-24T23:02:29.171Z,8.23
2018-04-24T23:04:56.959Z,7.87
2018-04-24T23:07:24.633Z,9.10
2018-04-24T23:21:15.656Z,7.72
2018-04-24T23:23:43.381Z,9.53
2018-04-24T23:26:11.089Z,7.80
2018-04-24T23:28:38.914Z,8.70
2018-04-24T23:31:06.564Z,8.53
2018-04-24T23:33:34.325Z,8.48
2018-04-24T23:36:02.811Z,8.23
2018-04-24T23:38:31.291Z,8.38
2018-04-24T23:40:59.002Z,7.90
2018-04-24T23:43:26.770Z,8.55
2018-04-24T23:45:54.446Z,8.00
2018-04-24T23:48:22.129Z,7.82
2018-04-24T23:50:49.799Z,7.75
2018-04-24T23:53:17.591Z,6.75
2018-04-24T23:55:45.342Z,7.62
2018-04-24T23:58:13.505Z,6.65
